Time;durP1;ratioP1;P1;durP2;ratioP2;P2;SDS_P1;SDS_P2;PMS_P1;PMS_P2;Temp;Humidity;BMP_temperature;BMP_pressure;BME280_temperature;BME280_humidity;BME280_pressure;Samples;Min_cycle;Max_cycle;Signal;HPM_P1;HPM_P2
2022/06/24 00:00:57;;;;;;;6.60;5.13;;;;;;;;;;5063882;28;20174;-56
2022/06/24 00:03:23;;;;;;;5.72;5.18;;;;;;;;;;5054584;28;20698;-55
2022/06/24 00:05:50;;;;;;;6.80;4.70;;;;;;;;;;5034216;28;20271;-55
2022/06/24 00:08:16;;;;;;;10.45;5.38;;;;;;;;;;5063296;28;20199;-56
2022/06/24 00:10:43;;;;;;;6.87;5.03;;;;;;;;;;5063660;28;20201;-56
2022/06/24 00:13:09;;;;;;;6.20;5.47;;;;;;;;;;5045784;28;20180;-57
2022/06/24 00:15:41;;;;;;;7.35;6.00;;;;;;;;;;5043557;28;20192;-56
2022/06/24 00:18:12;;;;;;;6.10;5.53;;;;;;;;;;5045873;28;20291;-55
2022/06/24 00:20:46;;;;;;;6.30;4.53;;;;;;;;;;5074122;28;20677;-57
2022/06/24 00:23:16;;;;;;;5.43;4.97;;;;;;;;;;5064874;28;20180;-57
2022/06/24 00:25:43;;;;;;;9.10;5.70;;;;;;;;;;5083746;28;20172;-56
2022/06/24 00:28:13;;;;;;;6.90;5.18;;;;;;;;;;5084976;28;20194;-57
2022/06/24 00:30:56;;;;;;;5.43;4.97;;;;;;;;;;5071802;28;20187;-56
2022/06/24 00:33:26;;;;;;;7.80;5.47;;;;;;;;;;5065316;28;20203;-57
2022/06/24 00:35:54;;;;;;;6.60;5.77;;;;;;;;;;5069266;28;20536;-57
2022/06/24 00:38:22;;;;;;;5.33;4.83;;;;;;;;;;5067493;28;20196;-56
2022/06/24 00:40:49;;;;;;;5.97;5.37;;;;;;;;;;5088234;28;20207;-57
2022/06/24 00:43:20;;;;;;;9.63;5.43;;;;;;;;;;5094282;28;20687;-57
2022/06/24 00:45:49;;;;;;;6.97;5.23;;;;;;;;;;5054256;28;20522;-58
2022/06/24 00:48:16;;;;;;;8.27;6.10;;;;;;;;;;5086818;28;20567;-57
2022/06/24 00:50:45;;;;;;;6.43;5.23;;;;;;;;;;5084770;28;20203;-57
2022/06/24 00:53:12;;;;;;;7.13;6.10;;;;;;;;;;5086326;28;20188;-58
2022/06/24 00:55:39;;;;;;;10.07;5.63;;;;;;;;;;5083477;28;20382;-58
2022/06/24 00:58:05;;;;;;;10.00;5.50;;;;;;;;;;5083688;28;20226;-58
2022/06/24 01:00:33;;;;;;;8.03;6.10;;;;;;;;;;5085281;28;20172;-58
2022/06/24 01:03:03;;;;;;;7.70;5.57;;;;;;;;;;5083817;28;20239;-63
2022/06/24 01:05:32;;;;;;;6.30;5.50;;;;;;;;;;5082367;28;20179;-57
2022/06/24 01:07:59;;;;;;;6.87;5.70;;;;;;;;;;5083486;28;20182;-57
2022/06/24 01:10:26;;;;;;;6.83;6.00;;;;;;;;;;5082713;28;20262;-58
2022/06/24 01:12:52;;;;;;;7.37;6.03;;;;;;;;;;5067294;28;20386;-59
2022/06/24 01:15:18;;;;;;;8.47;5.87;;;;;;;;;;5077397;28;20198;-59
2022/06/24 01:17:45;;;;;;;6.77;6.07;;;;;;;;;;5083387;28;20758;-59
2022/06/24 01:20:12;;;;;;;7.70;6.17;;;;;;;;;;5087858;28;20226;-59
2022/06/24 01:22:38;;;;;;;8.27;6.53;;;;;;;;;;5082947;28;20345;-59
2022/06/24 01:25:06;;;;;;;11.03;6.40;;;;;;;;;;5101083;28;20214;-59
2022/06/24 01:27:41;;;;;;;9.70;6.57;;;;;;;;;;5105362;28;20194;-59
2022/06/24 01:30:07;;;;;;;9.53;7.87;;;;;;;;;;5108991;27;21385;-59
2022/06/24 01:32:34;;;;;;;9.07;6.73;;;;;;;;;;5106909;28;20197;-59
2022/06/24 01:35:00;;;;;;;11.17;6.87;;;;;;;;;;5105603;27;20200;-59
2022/06/24 01:37:27;;;;;;;7.73;6.03;;;;;;;;;;5106396;28;20176;-58
2022/06/24 01:39:53;;;;;;;11.00;6.80;;;;;;;;;;5087409;28;20197;-59
2022/06/24 01:42:19;;;;;;;7.47;6.10;;;;;;;;;;5110376;27;20681;-59
2022/06/24 01:44:45;;;;;;;8.73;6.37;;;;;;;;;;5114584;27;20227;-58
2022/06/24 01:47:12;;;;;;;8.57;6.03;;;;;;;;;;5087972;27;20185;-59
2022/06/24 01:49:38;;;;;;;6.77;5.63;;;;;;;;;;5103789;28;20282;-58
2022/06/24 01:52:08;;;;;;;6.40;5.80;;;;;;;;;;5081400;28;20224;-59
2022/06/24 01:54:34;;;;;;;8.50;5.20;;;;;;;;;;5108305;28;20273;-58
2022/06/24 01:57:00;;;;;;;7.33;5.57;;;;;;;;;;5105122;28;20179;-58
2022/06/24 01:59:29;;;;;;;8.13;6.00;;;;;;;;;;5106389;27;20704;-58
2022/06/24 02:01:55;;;;;;;6.47;5.30;;;;;;;;;;5078714;28;20686;-58
2022/06/24 02:04:25;;;;;;;6.67;5.67;;;;;;;;;;5099576;27;20170;-58
2022/06/24 02:06:51;;;;;;;5.83;5.07;;;;;;;;;;5079574;28;20204;-58
2022/06/24 02:09:18;;;;;;;5.77;5.13;;;;;;;;;;5098378;28;20264;-58
2022/06/24 02:14:29;;;;;;;5.93;5.43;;;;;;;;;;5104923;27;20210;-58
2022/06/24 02:16:56;;;;;;;7.90;5.30;;;;;;;;;;5084818;28;20190;-58
2022/06/24 02:19:22;;;;;;;7.23;5.57;;;;;;;;;;5101586;27;22319;-57
2022/06/24 02:21:48;;;;;;;6.47;5.33;;;;;;;;;;5070282;28;20225;-58
2022/06/24 02:24:15;;;;;;;6.37;5.60;;;;;;;;;;5078611;28;20215;-58
2022/06/24 02:26:41;;;;;;;5.67;5.03;;;;;;;;;;5081101;28;20540;-58
2022/06/24 02:29:07;;;;;;;6.83;5.27;;;;;;;;;;5084530;28;20372;-57
2022/06/24 02:31:34;;;;;;;5.33;4.83;;;;;;;;;;5078382;28;20244;-58
2022/06/24 02:34:03;;;;;;;5.47;4.50;;;;;;;;;;5077430;28;20186;-58
2022/06/24 02:36:33;;;;;;;5.57;4.83;;;;;;;;;;5060058;28;20218;-58
2022/06/24 02:38:59;;;;;;;6.33;5.43;;;;;;;;;;5075493;28;20207;-58
2022/06/24 02:41:26;;;;;;;6.57;5.00;;;;;;;;;;5079374;28;20205;-58
2022/06/24 02:43:53;;;;;;;4.97;4.47;;;;;;;;;;5062928;28;20259;-58
2022/06/24 02:46:19;;;;;;;5.00;4.50;;;;;;;;;;5076833;28;20172;-57
2022/06/24 02:48:46;;;;;;;5.53;5.03;;;;;;;;;;5060885;28;20252;-57
2022/06/24 02:51:13;;;;;;;5.30;4.90;;;;;;;;;;5079256;28;20281;-57
2022/06/24 02:53:39;;;;;;;5.87;4.50;;;;;;;;;;5067639;28;20651;-58
2022/06/24 02:56:10;;;;;;;5.10;4.67;;;;;;;;;;5089350;28;20177;-56
2022/06/24 02:58:37;;;;;;;5.93;4.77;;;;;;;;;;5082233;28;20556;-58
2022/06/24 03:01:04;;;;;;;5.40;4.90;;;;;;;;;;5079163;28;21627;-57
2022/06/24 03:03:30;;;;;;;4.83;4.43;;;;;;;;;;5081694;28;20225;-57
2022/06/24 03:05:57;;;;;;;5.03;4.53;;;;;;;;;;5080250;28;20215;-57
2022/06/24 03:08:24;;;;;;;6.80;4.57;;;;;;;;;;5086476;28;20176;-57
2022/06/24 03:10:50;;;;;;;6.83;4.37;;;;;;;;;;5084552;28;20181;-57
2022/06/24 03:13:17;;;;;;;4.73;4.17;;;;;;;;;;5086274;28;20592;-57
2022/06/24 03:15:45;;;;;;;4.57;4.10;;;;;;;;;;5061168;28;20195;-58
2022/06/24 03:18:14;;;;;;;7.03;6.43;;;;;;;;;;5077955;28;20226;-57
2022/06/24 03:20:40;;;;;;;4.37;3.97;;;;;;;;;;5088671;27;20216;-57
2022/06/24 03:23:07;;;;;;;4.93;4.37;;;;;;;;;;5074674;28;20207;-57
2022/06/24 03:25:33;;;;;;;5.33;4.83;;;;;;;;;;5099490;27;20169;-57
2022/06/24 03:28:04;;;;;;;5.43;4.30;;;;;;;;;;5100486;28;20307;-57
2022/06/24 03:30:32;;;;;;;5.47;4.50;;;;;;;;;;5093435;27;20179;-57
2022/06/24 03:32:58;;;;;;;5.23;4.20;;;;;;;;;;5094572;27;20255;-57
2022/06/24 03:35:24;;;;;;;5.07;4.67;;;;;;;;;;5096442;27;20624;-57
2022/06/24 03:37:50;;;;;;;4.77;3.93;;;;;;;;;;5104508;27;20176;-58
2022/06/24 03:40:16;;;;;;;6.57;5.97;;;;;;;;;;5075450;28;20545;-58
2022/06/24 03:42:42;;;;;;;4.33;3.93;;;;;;;;;;5102237;27;20177;-58
2022/06/24 03:45:08;;;;;;;4.83;3.90;;;;;;;;;;5085336;28;20267;-58
2022/06/24 03:47:38;;;;;;;7.27;4.30;;;;;;;;;;5099363;27;20179;-58
2022/06/24 03:50:04;;;;;;;4.80;3.97;;;;;;;;;;5102033;28;20177;-58
2022/06/24 03:52:31;;;;;;;4.97;4.40;;;;;;;;;;5096711;28;20185;-58
2022/06/24 03:54:57;;;;;;;5.93;4.33;;;;;;;;;;5082185;28;20674;-58
2022/06/24 03:57:23;;;;;;;4.57;4.10;;;;;;;;;;5098471;28;20174;-58
2022/06/24 03:59:49;;;;;;;4.07;3.80;;;;;;;;;;5098089;27;20304;-59
2022/06/24 04:02:15;;;;;;;6.00;5.60;;;;;;;;;;5096908;27;20185;-59
2022/06/24 04:04:41;;;;;;;5.00;4.10;;;;;;;;;;5098590;28;20747;-59
2022/06/24 04:07:08;;;;;;;5.23;4.83;;;;;;;;;;5096145;28;20165;-58
2022/06/24 04:09:34;;;;;;;4.30;3.93;;;;;;;;;;5081864;28;20225;-58
2022/06/24 04:12:00;;;;;;;4.30;3.70;;;;;;;;;;5103484;28;20176;-57
2022/06/24 04:17:18;;;;;;;3.77;3.43;;;;;;;;;;5104697;28;20649;-57
2022/06/24 04:19:44;;;;;;;4.10;3.80;;;;;;;;;;5103257;28;20190;-58
2022/06/24 04:22:11;;;;;;;5.37;3.60;;;;;;;;;;5093009;27;20231;-57
2022/06/24 04:24:37;;;;;;;4.90;3.67;;;;;;;;;;5085655;28;20197;-58
2022/06/24 04:27:04;;;;;;;4.17;3.67;;;;;;;;;;5102632;28;20165;-58
2022/06/24 04:29:30;;;;;;;7.50;5.73;;;;;;;;;;5104563;27;20182;-58
2022/06/24 04:31:56;;;;;;;4.10;3.70;;;;;;;;;;5083152;28;20256;-58
2022/06/24 04:34:23;;;;;;;3.90;3.53;;;;;;;;;;5085605;28;20287;-58
2022/06/24 04:36:49;;;;;;;4.07;3.70;;;;;;;;;;5083938;28;20238;-58
2022/06/24 04:39:16;;;;;;;4.00;3.57;;;;;;;;;;5106971;28;20630;-58
2022/06/24 04:41:42;;;;;;;3.67;3.37;;;;;;;;;;5070925;28;20219;-59
2022/06/24 04:44:10;;;;;;;4.03;3.70;;;;;;;;;;5104812;28;20683;-59
2022/06/24 04:46:40;;;;;;;4.13;3.27;;;;;;;;;;5086648;28;20742;-58
2022/06/24 04:49:06;;;;;;;3.57;3.23;;;;;;;;;;5070379;28;20264;-58
2022/06/24 04:51:36;;;;;;;3.93;3.40;;;;;;;;;;5098274;28;20211;-58
2022/06/24 04:54:02;;;;;;;3.50;3.10;;;;;;;;;;5103518;28;20309;-58
2022/06/24 04:56:35;;;;;;;3.40;3.10;;;;;;;;;;5105792;28;20520;-58
2022/06/24 04:59:01;;;;;;;4.30;3.47;;;;;;;;;;5086882;28;20264;-59
2022/06/24 05:01:29;;;;;;;3.83;3.17;;;;;;;;;;5114734;27;20709;-59
2022/06/24 05:03:55;;;;;;;3.33;3.13;;;;;;;;;;5117498;27;20694;-59
2022/06/24 05:06:21;;;;;;;3.87;2.87;;;;;;;;;;5105392;27;20192;-58
2022/06/24 05:08:48;;;;;;;4.00;3.00;;;;;;;;;;5112167;27;20564;-59
2022/06/24 05:11:17;;;;;;;3.40;3.10;;;;;;;;;;5112773;27;20171;-59
2022/06/24 05:13:44;;;;;;;3.63;2.80;;;;;;;;;;5088859;28;20181;-61
2022/06/24 05:16:10;;;;;;;3.00;2.67;;;;;;;;;;5080567;28;20173;-58
2022/06/24 05:18:36;;;;;;;2.87;2.60;;;;;;;;;;5114280;27;20206;-58
2022/06/24 05:21:02;;;;;;;3.70;3.10;;;;;;;;;;5093622;28;20295;-57
2022/06/24 05:23:28;;;;;;;3.03;2.80;;;;;;;;;;5090146;28;20202;-58
2022/06/24 05:25:54;;;;;;;4.67;3.07;;;;;;;;;;5093513;28;20636;-59
2022/06/24 05:28:21;;;;;;;3.53;3.20;;;;;;;;;;5103792;28;20671;-59
2022/06/24 05:30:59;;;;;;;3.70;2.90;;;;;;;;;;5087005;28;20215;-59
2022/06/24 05:33:35;;;;;;;2.90;2.70;;;;;;;;;;5084185;28;20614;-59
2022/06/24 05:36:02;;;;;;;3.93;2.80;;;;;;;;;;5081148;28;20180;-61
2022/06/24 05:38:28;;;;;;;3.33;3.03;;;;;;;;;;5084115;28;20270;-59
2022/06/24 05:40:57;;;;;;;3.33;3.03;;;;;;;;;;5062955;28;20384;-59
2022/06/24 05:43:24;;;;;;;3.23;3.03;;;;;;;;;;5084299;28;20568;-59
2022/06/24 05:45:50;;;;;;;2.90;2.67;;;;;;;;;;5085726;28;20180;-59
2022/06/24 05:48:20;;;;;;;3.92;2.90;;;;;;;;;;5082179;28;20898;-59
2022/06/24 05:50:46;;;;;;;3.43;3.13;;;;;;;;;;5063659;28;20196;-59
2022/06/24 05:56:01;;;;;;;2.63;2.43;;;;;;;;;;5086559;28;20195;-58
2022/06/24 05:58:30;;;;;;;3.03;2.73;;;;;;;;;;5068765;28;20557;-58
2022/06/24 06:00:57;;;;;;;3.07;2.83;;;;;;;;;;5088778;28;20536;-59
2022/06/24 06:03:24;;;;;;;2.93;2.67;;;;;;;;;;5071324;28;20168;-58
2022/06/24 06:05:50;;;;;;;3.17;2.83;;;;;;;;;;5087168;28;20272;-59
2022/06/24 06:08:17;;;;;;;3.00;2.70;;;;;;;;;;5087172;28;20277;-60
2022/06/24 06:10:43;;;;;;;2.60;2.40;;;;;;;;;;5087670;28;20504;-59
2022/06/24 06:13:10;;;;;;;2.80;2.60;;;;;;;;;;5077884;28;20224;-59
2022/06/24 06:15:40;;;;;;;2.80;2.50;;;;;;;;;;5071068;28;20737;-59
2022/06/24 06:18:06;;;;;;;3.40;3.10;;;;;;;;;;5085290;28;20168;-59
2022/06/24 06:20:33;;;;;;;3.10;2.90;;;;;;;;;;5086610;28;20222;-59
2022/06/24 06:22:59;;;;;;;2.70;2.50;;;;;;;;;;5085510;28;20176;-58
2022/06/24 06:25:25;;;;;;;2.90;2.70;;;;;;;;;;5086447;28;20230;-58
2022/06/24 06:27:51;;;;;;;2.80;2.60;;;;;;;;;;5082614;28;20259;-59
2022/06/24 06:30:18;;;;;;;3.03;2.83;;;;;;;;;;5088717;28;20253;-58
2022/06/24 06:32:44;;;;;;;2.70;2.50;;;;;;;;;;5086187;28;20547;-58
2022/06/24 06:35:10;;;;;;;3.17;2.70;;;;;;;;;;5092265;28;20168;-58
2022/06/24 06:37:42;;;;;;;3.73;2.83;;;;;;;;;;5084685;28;20172;-58
2022/06/24 06:40:09;;;;;;;3.10;2.80;;;;;;;;;;5059145;28;20200;-58
2022/06/24 06:42:36;;;;;;;3.60;3.17;;;;;;;;;;5084598;28;20168;-56
2022/06/24 06:45:02;;;;;;;4.37;3.23;;;;;;;;;;5069319;28;20674;-58
2022/06/24 06:47:28;;;;;;;3.03;2.50;;;;;;;;;;5083385;28;20222;-57
2022/06/24 06:49:54;;;;;;;3.03;2.73;;;;;;;;;;5071620;28;20195;-57
2022/06/24 06:52:21;;;;;;;3.13;2.83;;;;;;;;;;5084346;28;20183;-58
2022/06/24 06:54:47;;;;;;;2.50;2.30;;;;;;;;;;5089324;28;20459;-57
2022/06/24 06:57:14;;;;;;;3.20;2.37;;;;;;;;;;5085435;28;20179;-57
2022/06/24 06:59:40;;;;;;;3.57;2.60;;;;;;;;;;5107691;28;20217;-57
2022/06/24 07:02:09;;;;;;;4.80;2.87;;;;;;;;;;5103235;27;20179;-57
2022/06/24 07:04:35;;;;;;;2.60;2.40;;;;;;;;;;5084674;27;20179;-57
2022/06/24 07:07:02;;;;;;;3.57;2.80;;;;;;;;;;5086467;28;20411;-56
2022/06/24 07:09:28;;;;;;;3.50;2.60;;;;;;;;;;5107946;28;20210;-56
2022/06/24 07:11:55;;;;;;;3.83;2.60;;;;;;;;;;5087453;27;20190;-57
2022/06/24 07:14:24;;;;;;;2.87;2.30;;;;;;;;;;5103847;28;20187;-57
2022/06/24 07:16:57;;;;;;;2.60;2.40;;;;;;;;;;5107579;27;20184;-57
2022/06/24 07:19:23;;;;;;;3.27;2.43;;;;;;;;;;5086989;28;20203;-57
2022/06/24 07:21:49;;;;;;;2.90;2.70;;;;;;;;;;5082094;28;20595;-57
2022/06/24 07:24:15;;;;;;;3.10;2.90;;;;;;;;;;5087738;28;20164;-57
2022/06/24 07:26:44;;;;;;;2.00;1.90;;;;;;;;;;5086171;28;20191;-57
2022/06/24 07:29:11;;;;;;;3.27;2.47;;;;;;;;;;5062358;28;20180;-57
2022/06/24 07:31:37;;;;;;;3.63;2.40;;;;;;;;;;5063659;28;20191;-57
2022/06/24 07:34:06;;;;;;;2.63;2.10;;;;;;;;;;5075386;28;20430;-58
2022/06/24 07:36:32;;;;;;;2.13;2.03;;;;;;;;;;5086072;28;20176;-58
2022/06/24 07:38:59;;;;;;;2.43;2.23;;;;;;;;;;5051794;28;20211;-57
2022/06/24 07:41:28;;;;;;;2.80;2.60;;;;;;;;;;5086749;28;20161;-57
2022/06/24 07:43:58;;;;;;;2.60;2.40;;;;;;;;;;5085756;28;20196;-57
2022/06/24 07:46:24;;;;;;;3.13;2.43;;;;;;;;;;5072157;28;20519;-57
2022/06/24 07:48:50;;;;;;;2.33;2.13;;;;;;;;;;5088671;28;20203;-57
2022/06/24 07:51:17;;;;;;;3.07;2.77;;;;;;;;;;5081353;28;20204;-57
2022/06/24 07:53:44;;;;;;;2.73;2.30;;;;;;;;;;5058463;28;20184;-58
2022/06/24 07:58:57;;;;;;;3.33;2.27;;;;;;;;;;5059093;28;20225;-58
2022/06/24 08:01:26;;;;;;;2.57;2.30;;;;;;;;;;5056841;28;20595;-57
2022/06/24 08:03:55;;;;;;;1.93;1.77;;;;;;;;;;5106598;28;20613;-57
2022/06/24 08:06:22;;;;;;;3.73;2.53;;;;;;;;;;5105192;28;20178;-57
2022/06/24 08:08:51;;;;;;;3.47;2.50;;;;;;;;;;5088587;28;20650;-57
2022/06/24 08:11:17;;;;;;;2.23;2.13;;;;;;;;;;5098066;28;20168;-57
2022/06/24 08:13:43;;;;;;;2.60;2.40;;;;;;;;;;5093866;28;20191;-57
2022/06/24 08:16:09;;;;;;;2.03;1.87;;;;;;;;;;5071647;28;20542;-55
2022/06/24 08:18:39;;;;;;;2.33;2.13;;;;;;;;;;5090681;28;20196;-57
2022/06/24 08:21:06;;;;;;;2.37;2.17;;;;;;;;;;5063832;28;20217;-56
2022/06/24 08:23:32;;;;;;;2.90;2.70;;;;;;;;;;5083867;28;20168;-57
2022/06/24 08:25:58;;;;;;;3.13;2.23;;;;;;;;;;5050933;28;20176;-57
2022/06/24 08:28:24;;;;;;;2.80;2.27;;;;;;;;;;5089248;28;20208;-56
2022/06/24 08:30:50;;;;;;;2.00;1.90;;;;;;;;;;5079437;28;20233;-56
2022/06/24 08:33:16;;;;;;;2.57;2.37;;;;;;;;;;5065354;28;20262;-57
2022/06/24 08:35:42;;;;;;;4.40;2.60;;;;;;;;;;5076929;28;20188;-57
2022/06/24 08:38:09;;;;;;;3.90;2.50;;;;;;;;;;5059619;28;20626;-57
2022/06/24 08:40:35;;;;;;;3.57;2.67;;;;;;;;;;5086215;28;20172;-57
2022/06/24 08:43:01;;;;;;;3.13;2.43;;;;;;;;;;5085504;28;20183;-56
2022/06/24 08:45:28;;;;;;;2.70;2.50;;;;;;;;;;5088814;28;20164;-57
2022/06/24 08:47:54;;;;;;;4.00;2.83;;;;;;;;;;5084310;28;20242;-56
2022/06/24 08:50:21;;;;;;;3.20;2.90;;;;;;;;;;5079265;28;20278;-56
2022/06/24 08:52:51;;;;;;;2.97;2.70;;;;;;;;;;5084405;28;20225;-57
2022/06/24 08:55:19;;;;;;;4.03;2.43;;;;;;;;;;5061942;28;20262;-57
2022/06/24 08:57:45;;;;;;;4.23;2.10;;;;;;;;;;5084639;28;20176;-56
2022/06/24 09:00:12;;;;;;;2.57;2.37;;;;;;;;;;5084972;28;20563;-57
2022/06/24 09:02:39;;;;;;;3.30;2.60;;;;;;;;;;5084645;28;20203;-56
2022/06/24 09:05:12;;;;;;;3.50;2.80;;;;;;;;;;5085554;28;20198;-57
2022/06/24 09:07:38;;;;;;;3.73;2.70;;;;;;;;;;5069046;28;20192;-56
2022/06/24 09:10:06;;;;;;;3.53;2.30;;;;;;;;;;5089566;28;20172;-57
2022/06/24 09:12:39;;;;;;;2.50;2.30;;;;;;;;;;5088922;28;20215;-57
2022/06/24 09:15:07;;;;;;;2.83;2.53;;;;;;;;;;5083826;28;20194;-57
2022/06/24 09:17:33;;;;;;;4.53;2.93;;;;;;;;;;5067994;28;20180;-57
2022/06/24 09:20:08;;;;;;;3.80;2.53;;;;;;;;;;5088213;28;20785;-57
2022/06/24 09:22:38;;;;;;;2.93;2.30;;;;;;;;;;5048969;28;20236;-57
2022/06/24 09:25:04;;;;;;;2.87;2.53;;;;;;;;;;5048085;28;20210;-57
2022/06/24 09:27:31;;;;;;;2.90;2.70;;;;;;;;;;5064599;28;20215;-57
2022/06/24 09:29:57;;;;;;;2.93;2.70;;;;;;;;;;5046899;28;20207;-57
2022/06/24 09:32:24;;;;;;;3.13;2.93;;;;;;;;;;5061130;28;20189;-57
2022/06/24 09:35:04;;;;;;;4.30;2.80;;;;;;;;;;5066302;28;20165;-58
2022/06/24 09:37:34;;;;;;;2.40;2.20;;;;;;;;;;5049828;28;20192;-57
2022/06/24 09:40:23;;;;;;;4.70;2.67;;;;;;;;;;5052966;28;20205;-58
2022/06/24 09:43:06;;;;;;;2.60;2.47;;;;;;;;;;5049207;28;20219;-57
2022/06/24 09:45:48;;;;;;;3.30;2.40;;;;;;;;;;5054980;28;20259;-57
2022/06/24 09:48:29;;;;;;;2.73;2.40;;;;;;;;;;5066758;28;20177;-58
2022/06/24 09:51:00;;;;;;;3.43;3.13;;;;;;;;;;5045833;28;20324;-58
2022/06/24 09:53:27;;;;;;;2.63;2.40;;;;;;;;;;5050858;28;20582;-58
2022/06/24 09:55:57;;;;;;;3.27;2.80;;;;;;;;;;5070075;28;20172;-57
2022/06/24 09:58:23;;;;;;;3.83;2.50;;;;;;;;;;5056613;28;20235;-57
2022/06/24 10:00:50;;;;;;;5.57;3.67;;;;;;;;;;5044846;28;20173;-57
2022/06/24 10:03:17;;;;;;;5.20;3.00;;;;;;;;;;5068792;28;20173;-57
2022/06/24 10:05:52;;;;;;;3.50;3.20;;;;;;;;;;5068063;28;21019;-57
2022/06/24 10:08:20;;;;;;;3.77;2.90;;;;;;;;;;5067424;28;20187;-57
2022/06/24 10:10:57;;;;;;;3.20;2.57;;;;;;;;;;5068693;28;20170;-58
2022/06/24 10:13:33;;;;;;;3.20;3.00;;;;;;;;;;5066905;28;20180;-58
2022/06/24 10:16:08;;;;;;;3.70;3.33;;;;;;;;;;5067633;28;20173;-58
2022/06/24 10:18:42;;;;;;;4.60;4.20;;;;;;;;;;5047630;28;20303;-58
2022/06/24 10:21:10;;;;;;;4.63;4.20;;;;;;;;;;5074882;28;20218;-59
2022/06/24 10:23:44;;;;;;;5.17;3.40;;;;;;;;;;5088418;28;20177;-59
2022/06/24 10:26:12;;;;;;;3.23;2.60;;;;;;;;;;5096088;28;20177;-58
2022/06/24 10:28:57;;;;;;;3.97;3.30;;;;;;;;;;5064944;28;20190;-58
2022/06/24 10:34:10;;;;;;;4.43;3.57;;;;;;;;;;5079282;28;20184;-58
2022/06/24 10:36:36;;;;;;;4.40;3.90;;;;;;;;;;5071453;28;20372;-59
2022/06/24 10:39:31;;;;;;;4.57;4.18;;;;;;;;;;5082342;28;20436;-57
2022/06/24 10:42:00;;;;;;;6.20;4.60;;;;;;;;;;5065153;28;20183;-57
2022/06/24 10:44:34;;;;;;;4.50;4.13;;;;;;;;;;5085813;28;20225;-57
2022/06/24 10:47:19;;;;;;;4.23;3.83;;;;;;;;;;5047347;28;20226;-57
2022/06/24 10:49:54;;;;;;;4.20;3.87;;;;;;;;;;5068503;28;20176;-57
2022/06/24 10:52:32;;;;;;;5.33;4.77;;;;;;;;;;5081356;28;20184;-57
2022/06/24 10:55:16;;;;;;;5.10;4.57;;;;;;;;;;5084416;28;20195;-57
2022/06/24 10:57:47;;;;;;;4.43;4.03;;;;;;;;;;5084251;28;20535;-57
2022/06/24 11:00:14;;;;;;;4.07;3.77;;;;;;;;;;5065758;28;20277;-57
2022/06/24 11:02:41;;;;;;;3.60;3.30;;;;;;;;;;5080722;28;20191;-57
2022/06/24 11:05:10;;;;;;;4.57;4.23;;;;;;;;;;5080751;28;20286;-56
2022/06/24 11:07:44;;;;;;;4.40;4.00;;;;;;;;;;5074799;28;20630;-57
2022/06/24 11:10:17;;;;;;;4.43;4.13;;;;;;;;;;5085854;28;20689;-57
2022/06/24 11:12:47;;;;;;;4.63;4.10;;;;;;;;;;5083241;28;20180;-57
2022/06/24 11:15:13;;;;;;;4.10;3.80;;;;;;;;;;5083539;28;20375;-57
2022/06/24 11:17:44;;;;;;;4.10;3.80;;;;;;;;;;5081768;28;20176;-57
2022/06/24 11:20:11;;;;;;;4.20;3.80;;;;;;;;;;5084247;28;20254;-57
2022/06/24 11:22:47;;;;;;;4.10;3.70;;;;;;;;;;5077334;28;20284;-57
2022/06/24 11:25:14;;;;;;;4.10;3.80;;;;;;;;;;5080368;28;20169;-57
2022/06/24 11:27:41;;;;;;;4.30;4.00;;;;;;;;;;5082215;28;20176;-58
2022/06/24 11:30:08;;;;;;;4.50;4.10;;;;;;;;;;5074486;28;20553;-57
2022/06/24 11:32:53;;;;;;;3.90;3.60;;;;;;;;;;5078741;28;20171;-57
2022/06/24 11:35:20;;;;;;;4.00;3.67;;;;;;;;;;5080296;28;20258;-57
2022/06/24 11:37:46;;;;;;;4.00;3.70;;;;;;;;;;5077079;28;20969;-57
2022/06/24 11:40:22;;;;;;;6.10;3.77;;;;;;;;;;5079748;28;20235;-56
2022/06/24 11:42:52;;;;;;;4.87;3.97;;;;;;;;;;5077063;28;20195;-56
2022/06/24 11:45:32;;;;;;;6.07;4.53;;;;;;;;;;5081407;28;20183;-58
2022/06/24 11:47:58;;;;;;;4.97;4.47;;;;;;;;;;5082093;28;20563;-57
2022/06/24 11:50:24;;;;;;;5.10;4.70;;;;;;;;;;5082474;28;20345;-59
2022/06/24 11:52:50;;;;;;;5.97;5.37;;;;;;;;;;5074066;28;20247;-59
2022/06/24 11:55:24;;;;;;;5.37;4.87;;;;;;;;;;5081215;28;20556;-58
2022/06/24 11:57:54;;;;;;;4.53;4.13;;;;;;;;;;5078301;28;20437;-58
2022/06/24 12:00:20;;;;;;;7.80;6.83;;;;;;;;;;5082376;28;20238;-58
2022/06/24 12:02:47;;;;;;;7.97;7.17;;;;;;;;;;5078442;28;20535;-57
2022/06/24 12:05:14;;;;;;;7.73;6.97;;;;;;;;;;5081406;28;20183;-57
2022/06/24 12:07:40;;;;;;;8.03;6.63;;;;;;;;;;5096169;27;20168;-57
2022/06/24 12:10:07;;;;;;;6.57;5.80;;;;;;;;;;5081949;28;20637;-57
2022/06/24 12:12:33;;;;;;;6.53;5.93;;;;;;;;;;5078817;28;20207;-59
2022/06/24 12:15:00;;;;;;;6.07;5.47;;;;;;;;;;5082376;28;20180;-58
2022/06/24 12:17:26;;;;;;;5.80;5.30;;;;;;;;;;5079742;28;20772;-57
2022/06/24 12:20:10;;;;;;;5.87;5.40;;;;;;;;;;5075955;28;20670;-57
2022/06/24 12:22:36;;;;;;;5.80;5.10;;;;;;;;;;5077594;28;20247;-57
2022/06/24 12:25:05;;;;;;;6.20;5.70;;;;;;;;;;5060881;28;20175;-58
2022/06/24 12:27:32;;;;;;;6.57;5.40;;;;;;;;;;5075826;28;20623;-58
2022/06/24 12:30:01;;;;;;;6.30;5.70;;;;;;;;;;5061559;28;20189;-58
2022/06/24 12:32:28;;;;;;;6.07;5.50;;;;;;;;;;5059179;28;20172;-56
2022/06/24 12:34:55;;;;;;;8.33;5.37;;;;;;;;;;5070461;28;20207;-57
2022/06/24 12:37:22;;;;;;;6.70;6.03;;;;;;;;;;5063832;28;20691;-57
2022/06/24 12:39:48;;;;;;;6.90;6.30;;;;;;;;;;5081628;28;20485;-57
2022/06/24 12:42:19;;;;;;;7.13;6.50;;;;;;;;;;5077270;28;20222;-56
2022/06/24 12:44:45;;;;;;;6.57;6.07;;;;;;;;;;5063621;28;20696;-55
2022/06/24 12:52:45;;;;;;;8.10;6.80;;;;;;;;;;5078150;28;20254;-56
2022/06/24 12:55:15;;;;;;;7.30;6.60;;;;;;;;;;5061412;28;20634;-57
2022/06/24 12:57:42;;;;;;;8.33;7.53;;;;;;;;;;5057067;28;20410;-57
2022/06/24 13:00:09;;;;;;;8.23;7.43;;;;;;;;;;5077509;28;20222;-56
2022/06/24 13:02:37;;;;;;;8.33;7.63;;;;;;;;;;5082424;28;20534;-55
2022/06/24 13:05:03;;;;;;;7.10;6.50;;;;;;;;;;5065003;28;20188;-57
2022/06/24 13:07:30;;;;;;;7.23;6.47;;;;;;;;;;5079076;28;20256;-57
2022/06/24 13:09:56;;;;;;;7.50;6.83;;;;;;;;;;5072010;28;20172;-58
2022/06/24 13:12:22;;;;;;;11.73;7.10;;;;;;;;;;5088394;28;20176;-55
2022/06/24 13:14:49;;;;;;;6.97;6.37;;;;;;;;;;5070098;28;20357;-56
2022/06/24 13:17:15;;;;;;;6.93;6.30;;;;;;;;;;5087795;28;20170;-55
2022/06/24 13:19:41;;;;;;;6.23;5.73;;;;;;;;;;5072782;28;20715;-56
2022/06/24 13:22:07;;;;;;;7.23;6.53;;;;;;;;;;5073010;28;20216;-57
2022/06/24 13:24:34;;;;;;;5.93;5.43;;;;;;;;;;5081849;28;20629;-56
2022/06/24 13:27:03;;;;;;;6.93;5.53;;;;;;;;;;5081055;28;20176;-57
2022/06/24 13:29:29;;;;;;;5.47;5.00;;;;;;;;;;5067103;28;20546;-56
2022/06/24 13:31:56;;;;;;;5.53;5.07;;;;;;;;;;5070665;28;20279;-56
2022/06/24 13:34:22;;;;;;;5.13;4.70;;;;;;;;;;5082857;28;20257;-56
2022/06/24 13:36:48;;;;;;;6.73;4.53;;;;;;;;;;5086705;28;20242;-56
2022/06/24 13:39:14;;;;;;;3.93;3.53;;;;;;;;;;5089976;28;20270;-57
2022/06/24 13:41:41;;;;;;;4.03;3.67;;;;;;;;;;5070349;28;20168;-58
2022/06/24 13:44:08;;;;;;;4.20;3.90;;;;;;;;;;5061196;28;20238;-56
2022/06/24 13:46:34;;;;;;;8.93;3.77;;;;;;;;;;5055308;28;20255;-57
2022/06/24 13:49:00;;;;;;;4.03;3.73;;;;;;;;;;5069587;28;20199;-56
2022/06/24 13:51:27;;;;;;;3.60;3.33;;;;;;;;;;5066665;28;20735;-57
2022/06/24 13:53:53;;;;;;;4.23;3.90;;;;;;;;;;5086348;28;20180;-58
2022/06/24 13:56:20;;;;;;;4.13;3.80;;;;;;;;;;5085166;28;20177;-56
2022/06/24 13:58:48;;;;;;;4.40;4.00;;;;;;;;;;5087702;28;20612;-58
2022/06/24 14:01:14;;;;;;;4.67;4.27;;;;;;;;;;5086352;28;20677;-57
2022/06/24 14:03:40;;;;;;;3.60;3.30;;;;;;;;;;5086083;28;20576;-58
2022/06/24 14:06:07;;;;;;;4.77;3.30;;;;;;;;;;5083584;28;20218;-58
2022/06/24 14:08:33;;;;;;;4.37;3.47;;;;;;;;;;5062995;28;20177;-57
2022/06/24 14:10:59;;;;;;;3.40;3.10;;;;;;;;;;5083248;28;20223;-58
2022/06/24 14:13:26;;;;;;;3.30;3.10;;;;;;;;;;5085954;28;20207;-54
2022/06/24 14:15:52;;;;;;;3.30;3.03;;;;;;;;;;5088990;28;20191;-55
2022/06/24 14:18:18;;;;;;;3.23;2.83;;;;;;;;;;5086945;28;20237;-53
2022/06/24 14:20:44;;;;;;;3.30;2.63;;;;;;;;;;5087369;28;20172;-56
2022/06/24 14:25:56;;;;;;;2.93;2.63;;;;;;;;;;5111728;27;20186;-59
2022/06/24 14:28:22;;;;;;;3.00;2.70;;;;;;;;;;5087487;27;20233;-57
2022/06/24 14:30:48;;;;;;;2.50;2.30;;;;;;;;;;5103960;27;20172;-57
2022/06/24 14:33:15;;;;;;;2.80;2.60;;;;;;;;;;5107192;27;20573;-57
2022/06/24 14:35:41;;;;;;;2.60;2.40;;;;;;;;;;5104109;27;20268;-57
2022/06/24 14:40:52;;;;;;;2.87;2.67;;;;;;;;;;5107394;27;20667;-58
2022/06/24 14:43:18;;;;;;;3.43;2.70;;;;;;;;;;5108190;28;20179;-56
2022/06/24 14:45:45;;;;;;;2.73;2.53;;;;;;;;;;5105783;27;20181;-57
2022/06/24 14:48:11;;;;;;;2.90;2.70;;;;;;;;;;5103557;27;20209;-56
2022/06/24 14:50:37;;;;;;;2.87;2.63;;;;;;;;;;5106653;27;20418;-57
2022/06/24 14:53:06;;;;;;;4.13;2.90;;;;;;;;;;5100674;27;20293;-57
2022/06/24 14:55:32;;;;;;;2.87;2.47;;;;;;;;;;5102521;27;20181;-56
2022/06/24 14:57:58;;;;;;;2.47;2.23;;;;;;;;;;5085324;27;20295;-57
2022/06/24 15:00:28;;;;;;;3.10;2.80;;;;;;;;;;5103482;27;20241;-57
2022/06/24 15:02:55;;;;;;;2.50;2.30;;;;;;;;;;5087008;28;20583;-57
2022/06/24 15:05:21;;;;;;;2.80;2.60;;;;;;;;;;5103729;27;20185;-58
2022/06/24 15:07:48;;;;;;;2.93;2.70;;;;;;;;;;5081914;28;20713;-56
2022/06/24 15:10:14;;;;;;;2.87;2.60;;;;;;;;;;5088764;28;20571;-58
2022/06/24 15:12:41;;;;;;;2.60;2.40;;;;;;;;;;5106407;28;20171;-57